Time;durP1;ratioP1;P1;durP2;ratioP2;P2;SDS_P1;SDS_P2;PMS_P1;PMS_P2;Temp;Humidity;BMP_temperature;BMP_pressure;BME280_temperature;BME280_humidity;BME280_pressure;Samples;Min_cycle;Max_cycle;Signal;HPM_P1;HPM_P2
2021/12/13 00:02:07;;;;;;;421.88;86.05;;;;;;;6.81;100.00;102193.78;4935772;29;20032;-86
2021/12/13 00:04:47;;;;;;;392.67;84.47;;;;;;;6.84;100.00;102190.38;4927719;29;20020;-86
2021/12/13 00:07:19;;;;;;;293.85;81.30;;;;;;;6.67;100.00;102165.50;4942031;29;20078;-87
2021/12/13 00:09:49;;;;;;;308.70;82.07;;;;;;;6.67;100.00;102160.38;4909639;29;20047;-87
2021/12/13 00:12:21;;;;;;;288.92;79.07;;;;;;;6.80;100.00;102181.81;4927564;29;20027;-86
2021/12/13 00:14:50;;;;;;;402.45;85.88;;;;;;;6.72;100.00;102175.78;4909833;29;20043;-86
2021/12/13 00:17:17;;;;;;;295.83;80.45;;;;;;;6.78;100.00;102185.22;4909736;29;20042;-86
2021/12/13 00:19:49;;;;;;;343.98;82.00;;;;;;;6.87;100.00;102193.84;4941078;29;20055;-86
2021/12/13 00:22:19;;;;;;;320.20;83.20;;;;;;;6.66;100.00;102155.25;4897192;29;20062;-86
2021/12/13 00:24:47;;;;;;;258.35;82.05;;;;;;;6.80;100.00;102186.94;4890535;29;20032;-86
2021/12/13 00:27:38;;;;;;;;;;;;;;;;;;;;;
2021/12/13 00:30:29;;;;;;;300.38;80.90;;;;;;;6.88;100.00;102194.69;4931660;29;20108;-86
2021/12/13 00:33:36;;;;;;;;;;;;;;;;;;;;;
2021/12/13 00:36:39;;;;;;;244.23;76.57;;;;;;;6.74;100.00;102171.53;4955710;29;20415;-87
2021/12/13 00:39:55;;;;;;;229.10;77.03;;;;;;;6.59;100.00;102146.66;4919163;28;20039;-86
2021/12/13 00:42:56;;;;;;;209.75;74.68;;;;;;;6.90;100.00;102209.22;4890767;29;20044;-87
2021/12/13 00:45:54;;;;;;;213.55;77.47;;;;;;;6.93;100.00;102202.41;4929402;29;20108;-86
2021/12/13 00:52:05;;;;;;;246.13;83.43;;;;;;;6.72;100.00;102158.72;4926400;23;20213;-87
2021/12/13 00:54:50;;;;;;;235.48;75.20;;;;;;;7.02;100.00;102213.59;4958689;28;20490;-85
2021/12/13 00:57:30;;;;;;;191.35;74.45;;;;;;;6.99;100.00;102213.56;4946502;28;20042;-85
2021/12/13 01:00:04;;;;;;;184.73;73.13;;;;;;;6.98;100.00;102210.97;4963105;28;20034;-85
2021/12/13 01:03:19;;;;;;;;;;;;;;;;;;;;;
2021/12/13 01:06:27;;;;;;;176.30;71.57;;;;;;;6.72;100.00;102168.09;4968809;28;20105;-87
2021/12/13 01:09:33;;;;;;;161.70;69.85;;;;;;;7.06;100.00;102219.59;4982668;28;20030;-86
2021/12/13 01:17:01;;;;;;;166.13;68.75;;;;;;;7.00;100.00;102204.16;4936769;29;20042;-86
2021/12/13 01:19:26;;;;;;;140.48;66.10;;;;;;;7.10;100.00;102228.19;4925910;29;20031;-85
2021/12/13 01:22:24;;;;;;;164.60;67.90;;;;;;;7.05;100.00;102225.56;4981233;28;20023;-84
2021/12/13 01:27:29;;;;;;;144.15;65.45;;;;;;;7.08;100.00;102236.69;4977333;28;20039;-86
2021/12/13 01:29:54;;;;;;;146.85;66.07;;;;;;;7.11;100.00;102229.88;4927682;29;20024;-87
2021/12/13 01:32:24;;;;;;;134.13;62.77;;;;;;;7.12;100.00;102234.16;4957441;28;20026;-88
2021/12/13 01:34:52;;;;;;;127.72;63.22;;;;;;;7.10;100.00;102236.69;4944342;28;20035;-86
2021/12/13 01:37:18;;;;;;;125.53;64.28;;;;;;;7.12;100.00;102236.72;4969756;29;20023;-86
2021/12/13 01:39:51;;;;;;;121.35;62.75;;;;;;;7.00;100.00;102220.41;4960749;28;20022;-84
2021/12/13 01:42:26;;;;;;;108.90;61.88;;;;;;;7.10;100.00;102234.13;4960633;28;20027;-86
2021/12/13 01:45:20;;;;;;;112.63;61.47;;;;;;;7.15;100.00;102246.97;4951104;29;20678;-86
2021/12/13 01:47:49;;;;;;;108.20;60.47;;;;;;;7.15;100.00;102241.88;4959848;28;20027;-86
2021/12/13 01:50:29;;;;;;;125.60;61.72;;;;;;;7.25;100.00;102246.22;4947757;28;20123;-86
2021/12/13 01:52:56;;;;;;;100.97;60.78;;;;;;;6.97;100.00;102199.91;4963409;28;20073;-86
2021/12/13 01:55:29;;;;;;;112.20;60.20;;;;;;;7.13;100.00;102220.53;4963479;28;20022;-86
2021/12/13 02:01:16;;;;;;;110.68;60.88;;;;;;;7.19;100.00;102230.78;4963147;28;20550;-87
2021/12/13 02:04:05;;;;;;;105.15;59.80;;;;;;;7.30;100.00;102233.47;4946927;28;20089;-87
2021/12/13 02:07:03;;;;;;;100.38;59.17;;;;;;;7.28;100.00;102236.00;4962212;28;20038;-87
2021/12/13 02:09:48;;;;;;;99.40;58.97;;;;;;;7.16;100.00;102205.19;4964209;28;20030;-85
2021/12/13 02:12:32;;;;;;;120.70;60.72;;;;;;;7.06;100.00;102189.75;4963905;28;20031;-87
2021/12/13 02:18:20;;;;;;;123.95;61.47;;;;;;;7.29;100.00;102226.66;4966824;28;20154;-87
2021/12/13 02:21:25;;;;;;;111.72;59.00;;;;;;;7.08;100.00;102193.19;4964632;28;20109;-87
2021/12/13 02:23:55;;;;;;;115.85;59.95;;;;;;;7.26;100.00;102217.22;4941400;28;20039;-87
2021/12/13 02:26:26;;;;;;;109.78;60.25;;;;;;;7.25;100.00;102228.28;4976516;28;20034;-86
2021/12/13 02:29:02;;;;;;;105.32;59.47;;;;;;;7.28;100.00;102218.09;4982561;28;20027;-86
2021/12/13 02:31:33;;;;;;;105.23;60.23;;;;;;;7.11;100.00;102200.03;4968265;28;20014;-86
2021/12/13 02:34:12;;;;;;;104.00;60.95;;;;;;;7.38;100.00;102242.06;4977405;28;20281;-85
2021/12/13 02:36:45;;;;;;;110.93;59.72;;;;;;;7.34;100.00;102230.09;4984144;28;20053;-86
2021/12/13 02:39:16;;;;;;;105.38;59.55;;;;;;;7.38;100.00;102253.19;4984051;28;20091;-85
2021/12/13 02:41:56;;;;;;;102.00;57.70;;;;;;;7.44;100.00;102253.25;4984759;28;20042;-85
2021/12/13 02:44:42;;;;;;;100.30;58.67;;;;;;;7.13;100.00;102207.72;4984372;28;20019;-85
2021/12/13 02:47:32;;;;;;;97.90;58.20;;;;;;;7.44;100.00;102258.34;4979108;28;20879;-86
2021/12/13 02:50:29;;;;;;;93.45;58.03;;;;;;;7.44;100.00;102255.78;4973985;28;20034;-86
2021/12/13 02:53:00;;;;;;;82.45;57.05;;;;;;;7.38;100.00;102232.69;4967221;28;20039;-86
2021/12/13 02:55:41;;;;;;;83.88;55.92;;;;;;;7.43;100.00;102231.03;4943481;29;20019;-86
2021/12/13 02:58:36;;;;;;;87.40;57.20;;;;;;;7.39;100.00;102231.84;4953944;29;20040;-86
2021/12/13 03:01:18;;;;;;;83.25;56.03;;;;;;;7.52;100.00;102255.00;4924788;28;20115;-86
2021/12/13 03:04:01;;;;;;;88.43;57.15;;;;;;;7.53;100.00;102255.00;4956145;28;20046;-86
2021/12/13 03:07:13;;;;;;;95.18;57.92;;;;;;;7.39;100.00;102231.00;4950455;28;20048;-84
2021/12/13 03:09:41;;;;;;;86.22;57.88;;;;;;;7.52;100.00;102258.41;4961344;28;20058;-83
2021/12/13 03:12:11;;;;;;;95.57;57.78;;;;;;;7.38;100.00;102250.63;4958306;28;20103;-85
2021/12/13 03:14:41;;;;;;;94.55;58.47;;;;;;;7.43;100.00;102248.94;4975809;28;20014;-84
2021/12/13 03:17:09;;;;;;;92.97;58.50;;;;;;;7.41;100.00;102248.09;4984066;28;20026;-83
2021/12/13 03:19:38;;;;;;;94.85;58.92;;;;;;;7.58;100.00;102270.41;4982372;28;20019;-85
2021/12/13 03:22:41;;;;;;;93.20;58.83;;;;;;;7.61;100.00;102266.16;5001467;28;20037;-84
2021/12/13 03:25:27;;;;;;;98.60;58.40;;;;;;;7.61;100.00;102265.31;4994582;28;20048;-85
2021/12/13 03:28:21;;;;;;;98.35;58.85;;;;;;;7.59;100.00;102272.13;4967518;28;20086;-84
2021/12/13 03:31:01;;;;;;;96.35;57.72;;;;;;;7.70;100.00;102275.63;4983997;28;20029;-85
2021/12/13 03:33:41;;;;;;;90.05;56.70;;;;;;;7.66;100.00;102273.03;4967972;28;20007;-86
2021/12/13 03:36:09;;;;;;;90.47;58.20;;;;;;;7.69;100.00;102263.66;4958214;28;20047;-86
2021/12/13 03:38:40;;;;;;;98.80;58.65;;;;;;;7.68;100.00;102271.34;4970578;28;20016;-86
2021/12/13 03:41:13;;;;;;;88.63;57.08;;;;;;;7.68;100.00;102267.06;4974295;28;20011;-86
2021/12/13 03:44:02;;;;;;;89.13;56.72;;;;;;;7.63;100.00;102266.19;4991451;28;20035;-86
2021/12/13 03:46:30;;;;;;;99.07;58.47;;;;;;;7.65;100.00;102272.16;4980750;28;20019;-87
2021/12/13 03:48:58;;;;;;;81.15;56.88;;;;;;;7.65;100.00;102267.03;4964517;28;20075;-86
2021/12/13 03:51:34;;;;;;;81.35;55.75;;;;;;;7.69;100.00;102270.50;4990207;28;20027;-87
2021/12/13 03:54:10;;;;;;;83.47;56.33;;;;;;;7.60;100.00;102255.91;4956078;28;20102;-87
2021/12/13 03:56:39;;;;;;;94.90;58.20;;;;;;;7.59;100.00;102252.50;5001433;28;20014;-85
2021/12/13 03:59:10;;;;;;;88.78;58.70;;;;;;;7.69;100.00;102279.03;4986381;28;20020;-85
2021/12/13 04:01:44;;;;;;;88.20;57.13;;;;;;;7.72;100.00;102284.19;4979622;28;20023;-83
2021/12/13 04:04:14;;;;;;;90.07;56.83;;;;;;;7.69;100.00;102286.72;4963472;28;20485;-84
2021/12/13 04:06:46;;;;;;;88.22;58.60;;;;;;;7.85;100.00;102291.97;4941402;28;20030;-85
2021/12/13 04:09:12;;;;;;;89.95;56.33;;;;;;;7.71;100.00;102281.63;4943507;29;20082;-84
2021/12/13 04:11:54;;;;;;;81.50;56.47;;;;;;;7.89;100.00;102301.38;4941697;29;20078;-84
2021/12/13 04:14:30;;;;;;;79.75;55.88;;;;;;;7.58;100.00;102244.81;4927760;29;20023;-84
2021/12/13 04:17:37;;;;;;;82.70;57.15;;;;;;;7.88;100.00;102294.56;4926971;29;20049;-86
2021/12/13 04:20:25;;;;;;;89.55;56.75;;;;;;;7.67;100.00;102265.38;4947961;29;20372;-86
2021/12/13 04:22:57;;;;;;;80.53;57.58;;;;;;;7.89;100.00;102293.69;4931974;29;20038;-86
2021/12/13 04:25:31;;;;;;;86.63;57.38;;;;;;;7.85;100.00;102279.16;4949446;28;20527;-86
2021/12/13 04:28:13;;;;;;;89.13;57.65;;;;;;;7.76;100.00;102278.25;4952405;29;20118;-85
2021/12/13 04:30:47;;;;;;;90.65;58.67;;;;;;;7.97;100.00;102299.75;4940850;29;20035;-85
2021/12/13 04:33:27;;;;;;;85.82;57.08;;;;;;;7.90;100.00;102278.34;4955849;29;20027;-87
2021/12/13 04:35:57;;;;;;;89.45;57.55;;;;;;;7.97;100.00;102284.38;4971385;29;20134;-88
2021/12/13 04:38:27;;;;;;;94.90;58.35;;;;;;;7.80;100.00;102272.28;4956663;28;20027;-86
2021/12/13 04:41:00;;;;;;;96.82;58.95;;;;;;;8.09;100.00;102310.06;4948996;28;20030;-84
2021/12/13 04:43:34;;;;;;;85.18;59.38;;;;;;;7.70;100.00;102259.41;4961556;28;20023;-86
2021/12/13 04:46:04;;;;;;;84.63;56.10;;;;;;;8.13;100.00;102316.09;4945120;28;20030;-85
2021/12/13 04:48:39;;;;;;;83.47;56.80;;;;;;;7.96;100.00;102304.00;4961945;28;20090;-85
2021/12/13 04:51:14;;;;;;;82.55;57.55;;;;;;;8.04;100.00;102327.13;4961262;28;20047;-85
2021/12/13 04:53:44;;;;;;;85.50;57.58;;;;;;;7.95;100.00;102310.00;4952532;28;20398;-85
2021/12/13 04:56:32;;;;;;;85.20;58.60;;;;;;;7.80;100.00;102277.41;4963433;28;20034;-86
2021/12/13 04:59:07;;;;;;;92.63;58.38;;;;;;;7.98;100.00;102306.56;4955530;28;20564;-85
2021/12/13 05:02:00;;;;;;;86.68;56.90;;;;;;;8.12;100.00;102322.06;4954737;29;20504;-86
2021/12/13 05:04:33;;;;;;;85.32;56.58;;;;;;;8.07;100.00;102322.03;4969006;28;20490;-86
2021/12/13 05:17:15;;;;;;;87.47;58.97;;;;;;;8.13;100.00;102331.47;4964267;28;20055;-85
2021/12/13 05:20:27;;;;;;;93.20;57.95;;;;;;;7.99;100.00;102318.56;4950231;28;20091;-85
2021/12/13 05:26:12;;;;;;;102.53;61.33;;;;;;;7.95;100.00;102311.69;4948640;28;20051;-86
2021/12/13 05:32:20;;;;;;;103.72;59.60;;;;;;;8.11;100.00;102339.16;4958396;28;20038;-86
2021/12/13 05:34:56;;;;;;;109.78;62.50;;;;;;;8.03;100.00;102315.16;4949832;28;20078;-87
2021/12/13 05:37:22;;;;;;;102.67;62.07;;;;;;;8.01;100.00;102319.41;4957393;28;20113;-88
2021/12/13 05:40:48;;;;;;;;;;;;;;;;;;;;;
2021/12/13 05:43:24;;;;;;;110.05;62.08;;;;;;;8.13;100.00;102344.28;4957336;28;20053;-87
2021/12/13 05:46:12;;;;;;;101.93;59.88;;;;;;;7.95;100.00;102319.38;4961716;29;20114;-88
2021/12/13 05:48:46;;;;;;;88.97;58.67;;;;;;;8.17;100.00;102339.16;4944836;29;20031;-87
2021/12/13 05:51:34;;;;;;;101.95;60.75;;;;;;;8.13;100.00;102345.16;4945532;29;20034;-88
2021/12/13 05:54:13;;;;;;;98.25;60.72;;;;;;;8.20;100.00;102350.31;4972815;23;20505;-85
2021/12/13 05:56:45;;;;;;;91.85;58.38;;;;;;;8.11;100.00;102343.41;4946606;29;20070;-84
2021/12/13 05:59:11;;;;;;;95.75;58.50;;;;;;;8.15;100.00;102360.53;4958907;29;20027;-82
2021/12/13 06:02:00;;;;;;;93.43;59.47;;;;;;;8.16;100.00;102354.53;4958393;28;20038;-83
2021/12/13 06:04:57;;;;;;;97.15;57.83;;;;;;;8.18;100.00;102365.69;4937003;29;20043;-83
2021/12/13 06:07:25;;;;;;;99.47;60.58;;;;;;;8.22;100.00;102361.44;4954139;29;20071;-84
2021/12/13 06:10:01;;;;;;;87.20;58.05;;;;;;;8.24;100.00;102359.72;4941954;29;20023;-84
2021/12/13 06:12:38;;;;;;;89.75;58.80;;;;;;;8.08;100.00;102349.38;4940912;29;20360;-84
2021/12/13 06:15:20;;;;;;;94.32;61.25;;;;;;;8.14;100.00;102341.75;4936594;29;20118;-84
2021/12/13 06:17:47;;;;;;;88.13;59.15;;;;;;;8.21;100.00;102362.28;4961854;29;20122;-85
2021/12/13 06:20:16;;;;;;;93.72;60.05;;;;;;;8.17;100.00;102351.16;4945273;29;20031;-82
2021/12/13 06:22:42;;;;;;;99.22;60.72;;;;;;;8.27;100.00;102370.88;4950717;29;20095;-84
2021/12/13 06:25:15;;;;;;;96.33;61.23;;;;;;;8.28;100.00;102374.31;4929333;29;20035;-84
2021/12/13 06:27:46;;;;;;;96.70;60.50;;;;;;;8.29;100.00;102373.47;4926237;29;20269;-82
2021/12/13 06:30:23;;;;;;;94.10;61.08;;;;;;;8.31;100.00;102366.63;4934845;29;20035;-85
2021/12/13 06:32:59;;;;;;;87.28;59.78;;;;;;;8.24;100.00;102363.16;4928829;29;20027;-83
2021/12/13 06:35:33;;;;;;;90.45;59.08;;;;;;;8.35;100.00;102383.72;4959472;28;20059;-83
2021/12/13 06:38:19;;;;;;;88.20;59.92;;;;;;;8.34;100.00;102375.19;4929642;29;20122;-84
2021/12/13 06:41:04;;;;;;;101.87;60.43;;;;;;;8.39;100.00;102382.91;4929218;29;20112;-85
2021/12/13 06:44:05;;;;;;;93.95;60.22;;;;;;;8.42;100.00;102388.06;4946133;29;20032;-86
2021/12/13 06:46:44;;;;;;;94.90;61.42;;;;;;;8.41;100.00;102394.03;4929221;29;20027;-85
2021/12/13 06:49:21;;;;;;;99.65;60.63;;;;;;;8.43;100.00;102392.41;4927555;29;20078;-84
2021/12/13 06:52:05;;;;;;;98.88;61.13;;;;;;;8.41;100.00;102399.16;4946497;29;20028;-83
2021/12/13 06:54:52;;;;;;;95.88;60.92;;;;;;;8.46;100.00;102397.56;4944605;29;20088;-82
2021/12/13 06:57:22;;;;;;;101.15;61.45;;;;;;;8.44;100.00;102399.22;4956955;29;20044;-84
2021/12/13 06:59:51;;;;;;;104.65;63.22;;;;;;;8.40;100.00;102401.72;4945431;29;20123;-84
2021/12/13 07:02:28;;;;;;;97.50;62.80;;;;;;;8.44;100.00;102406.91;4931361;29;20031;-84
2021/12/13 07:05:08;;;;;;;102.60;62.78;;;;;;;8.41;100.00;102401.72;4932296;29;20035;-84
2021/12/13 07:07:38;;;;;;;113.88;69.10;;;;;;;8.38;100.00;102409.41;4916643;29;20035;-84
2021/12/13 07:10:14;;;;;;;98.97;61.38;;;;;;;8.41;100.00;102417.13;4916230;29;20027;-84
2021/12/13 07:12:49;;;;;;;104.47;60.95;;;;;;;8.41;100.00;102424.81;4917974;29;20019;-84
2021/12/13 07:15:33;;;;;;;93.60;61.08;;;;;;;8.40;100.00;102423.13;4932073;29;20032;-85
2021/12/13 07:18:29;;;;;;;94.13;59.10;;;;;;;8.40;100.00;102432.50;4933629;29;20079;-84
2021/12/13 07:21:02;;;;;;;97.05;61.28;;;;;;;8.41;100.00;102423.97;4924639;29;20030;-84
2021/12/13 07:23:48;;;;;;;87.78;60.90;;;;;;;8.39;100.00;102426.50;4913689;29;20040;-82
2021/12/13 07:26:14;;;;;;;86.03;58.15;;;;;;;8.37;100.00;102433.34;4948028;29;20028;-84
2021/12/13 07:28:40;;;;;;;84.05;60.08;;;;;;;8.42;100.00;102439.34;4931348;29;20071;-85
2021/12/13 07:31:08;;;;;;;86.63;58.70;;;;;;;8.37;100.00;102443.59;4929851;29;20028;-83
2021/12/13 07:33:43;;;;;;;77.38;56.92;;;;;;;8.31;100.00;102431.56;4915854;29;20086;-82
2021/12/13 07:36:22;;;;;;;80.32;58.05;;;;;;;8.43;100.00;102445.34;4941937;29;20079;-84
2021/12/13 07:38:50;;;;;;;75.75;57.75;;;;;;;8.42;100.00;102446.22;4942531;29;20027;-84
2021/12/13 07:41:16;;;;;;;76.80;58.10;;;;;;;8.39;100.00;102441.91;4924176;29;20494;-83
2021/12/13 07:43:44;;;;;;;88.75;59.25;;;;;;;8.42;100.00;102452.19;4928971;29;20051;-83
2021/12/13 07:46:18;;;;;;;84.47;59.55;;;;;;;8.42;100.00;102452.19;4913161;29;20047;-84
2021/12/13 07:48:46;;;;;;;89.25;59.58;;;;;;;8.46;100.00;102447.97;4946113;29;20030;-84
2021/12/13 07:51:17;;;;;;;82.40;57.85;;;;;;;8.50;100.00;102450.56;4931630;29;20029;-83
2021/12/13 07:53:51;;;;;;;81.30;57.55;;;;;;;8.41;100.00;102432.50;4960464;28;20088;-84
2021/12/13 07:56:33;;;;;;;90.20;59.72;;;;;;;8.50;100.00;102450.56;4958196;29;20104;-83
2021/12/13 07:59:01;;;;;;;83.60;59.22;;;;;;;8.50;100.00;102452.28;4957670;29;20195;-82
2021/12/13 08:01:29;;;;;;;80.60;61.05;;;;;;;8.36;100.00;102432.47;4958913;29;20066;-82
2021/12/13 08:04:17;;;;;;;78.90;57.83;;;;;;;8.60;100.00;102463.47;4945120;29;20032;-82
2021/12/13 08:06:47;;;;;;;90.03;60.30;;;;;;;8.33;100.00;102435.00;4941901;29;20484;-83
2021/12/13 08:09:16;;;;;;;82.50;59.50;;;;;;;8.50;100.00;102468.50;4960251;29;20030;-84
2021/12/13 08:11:47;;;;;;;83.78;59.22;;;;;;;8.47;100.00;102460.78;4941571;29;20028;-84
2021/12/13 08:14:14;;;;;;;97.35;62.97;;;;;;;8.34;100.00;102433.31;4955609;29;20032;-83
2021/12/13 08:16:48;;;;;;;86.07;60.60;;;;;;;8.52;100.00;102474.50;4929815;29;20082;-84
2021/12/13 08:19:27;;;;;;;80.28;60.47;;;;;;;8.44;100.00;102450.50;4926937;29;20007;-84
2021/12/13 08:21:57;;;;;;;75.60;58.60;;;;;;;8.53;100.00;102471.09;4929247;29;20028;-84
2021/12/13 08:24:30;;;;;;;75.30;59.05;;;;;;;8.25;100.00;102422.97;4928964;29;20043;-84
2021/12/13 08:27:01;;;;;;;76.25;57.53;;;;;;;8.51;100.00;102472.81;4928831;29;20031;-84
2021/12/13 08:29:31;;;;;;;72.93;58.88;;;;;;;8.60;100.00;102477.13;4950421;29;20023;-84
2021/12/13 08:32:07;;;;;;;76.10;59.55;;;;;;;8.63;100.00;102484.84;4942241;29;20087;-83
2021/12/13 08:34:56;;;;;;;77.63;58.97;;;;;;;8.38;100.00;102449.56;4939526;29;20066;-85
2021/12/13 08:37:31;;;;;;;77.95;59.25;;;;;;;8.62;100.00;102480.59;4945156;29;20034;-84
2021/12/13 08:40:10;;;;;;;76.18;57.00;;;;;;;8.52;100.00;102477.06;4957575;29;20020;-84
2021/12/13 08:42:40;;;;;;;79.20;60.00;;;;;;;8.66;100.00;102492.56;4950995;28;20031;-84
2021/12/13 08:45:32;;;;;;;75.95;58.72;;;;;;;8.65;100.00;102495.13;4943071;29;20032;-84
2021/12/13 08:48:10;;;;;;;82.22;60.42;;;;;;;8.45;100.00;102462.50;4946467;29;20045;-84
2021/12/13 08:50:46;;;;;;;80.28;60.55;;;;;;;8.64;100.00;102489.16;4950666;29;20031;-84
2021/12/13 08:53:24;;;;;;;87.53;61.40;;;;;;;8.59;100.00;102484.81;4946868;29;20019;-84
2021/12/13 08:56:11;;;;;;;77.70;58.72;;;;;;;8.52;100.00;102479.63;4945017;29;20027;-85
2021/12/13 08:58:51;;;;;;;82.00;60.23;;;;;;;8.36;100.00;102454.69;4958875;28;20417;-85
2021/12/13 09:01:18;;;;;;;76.40;58.80;;;;;;;8.74;100.00;102504.63;4935833;29;20384;-84
2021/12/13 09:03:49;;;;;;;87.28;61.72;;;;;;;8.48;100.00;102466.81;4957765;28;20038;-83
2021/12/13 09:06:17;;;;;;;84.40;60.40;;;;;;;8.76;100.00;102508.88;4958748;29;20034;-84
2021/12/13 09:09:05;;;;;;;87.07;61.70;;;;;;;8.70;100.00;102503.72;4956140;29;20050;-82
2021/12/13 09:11:45;;;;;;;88.55;62.35;;;;;;;8.75;100.00;102517.47;4965008;29;20020;-84
2021/12/13 09:14:16;;;;;;;90.60;62.47;;;;;;;8.72;100.00;102514.88;4922398;29;20469;-83
2021/12/13 09:17:07;;;;;;;81.88;61.00;;;;;;;8.77;100.00;102518.31;4926166;29;20028;-83
2021/12/13 09:19:47;;;;;;;80.30;60.78;;;;;;;8.85;100.00;102526.94;4947014;29;20034;-83
2021/12/13 09:22:18;;;;;;;86.50;62.53;;;;;;;8.89;100.00;102526.13;4958785;28;20032;-84
2021/12/13 09:24:46;;;;;;;82.85;62.72;;;;;;;8.86;100.00;102520.97;4928455;29;20024;-82
2021/12/13 09:27:21;;;;;;;80.72;60.88;;;;;;;8.78;100.00;102511.47;4941692;29;20028;-83
2021/12/13 09:29:57;;;;;;;87.43;62.92;;;;;;;8.90;100.00;102522.69;4918603;29;20038;-81
2021/12/13 09:32:32;;;;;;;85.13;61.53;;;;;;;8.90;100.00;102519.25;4917221;29;20020;-82
2021/12/13 09:35:21;;;;;;;85.80;62.35;;;;;;;8.93;100.00;102521.00;4961841;28;20143;-82
2021/12/13 09:37:47;;;;;;;83.18;60.65;;;;;;;8.95;100.00;102516.72;4914219;29;20019;-82
2021/12/13 09:40:14;;;;;;;83.18;61.55;;;;;;;8.95;100.00;102514.16;4928172;29;20518;-82
2021/12/13 09:42:49;;;;;;;78.53;60.33;;;;;;;8.95;100.00;102504.75;4931107;29;20028;-82
2021/12/13 09:45:27;;;;;;;78.85;61.03;;;;;;;8.99;100.00;102506.50;4929423;29;20034;-83
2021/12/13 09:47:53;;;;;;;81.20;61.17;;;;;;;9.02;100.00;102510.78;4917634;29;20090;-82
2021/12/13 09:50:26;;;;;;;81.45;61.50;;;;;;;8.96;100.00;102495.34;4926334;29;20012;-81
2021/12/13 09:53:03;;;;;;;80.57;61.17;;;;;;;9.02;100.00;102495.38;4953289;29;20051;-80
2021/12/13 09:55:32;;;;;;;76.78;59.80;;;;;;;9.00;100.00;102499.66;4925617;29;20023;-80
2021/12/13 09:58:04;;;;;;;73.60;60.70;;;;;;;9.04;100.00;102506.53;4923819;29;20039;-82
2021/12/13 10:00:43;;;;;;;72.00;59.67;;;;;;;9.08;100.00;102510.81;4925913;29;20035;-80
2021/12/13 10:03:16;;;;;;;74.60;59.67;;;;;;;9.12;100.00;102512.56;4922312;29;20027;-79
2021/12/13 10:05:43;;;;;;;77.82;62.63;;;;;;;9.10;100.00;102498.88;4907803;29;20547;-79
2021/12/13 10:08:13;;;;;;;78.18;61.10;;;;;;;9.03;100.00;102500.50;4921939;29;20024;-79
2021/12/13 10:11:04;;;;;;;76.10;60.20;;;;;;;9.12;100.00;102519.41;4960393;28;20023;-79
2021/12/13 10:13:34;;;;;;;73.40;59.22;;;;;;;9.12;100.00;102512.56;4934195;29;20111;-80
2021/12/13 10:16:07;;;;;;;72.68;59.88;;;;;;;9.06;100.00;102503.09;4955873;29;20019;-79
2021/12/13 10:18:34;;;;;;;65.82;58.63;;;;;;;9.18;100.00;102517.72;4957230;29;20024;-79
2021/12/13 10:21:30;;;;;;;78.28;60.15;;;;;;;9.22;100.00;102519.44;4928686;29;20024;-79
2021/12/13 10:24:00;;;;;;;68.03;58.90;;;;;;;9.17;100.00;102520.28;4923006;29;20046;-79
2021/12/13 10:26:33;;;;;;;68.03;58.10;;;;;;;9.08;100.00;102505.69;4973258;28;20085;-79
2021/12/13 10:29:00;;;;;;;69.78;59.10;;;;;;;9.21;100.00;102517.75;4975643;28;20031;-79
2021/12/13 10:31:32;;;;;;;68.00;57.53;;;;;;;9.10;100.00;102509.13;4941379;29;20024;-80
2021/12/13 10:33:58;;;;;;;73.40;59.42;;;;;;;9.12;100.00;102519.41;4931531;29;20062;-79
2021/12/13 10:36:28;;;;;;;66.38;57.15;;;;;;;9.07;100.00;102511.69;4935627;29;20034;-81
2021/12/13 10:38:56;;;;;;;67.07;58.28;;;;;;;9.13;100.00;102524.56;4954927;29;20019;-81
2021/12/13 10:41:27;;;;;;;68.25;58.53;;;;;;;9.12;100.00;102521.97;4951629;29;20032;-80
2021/12/13 10:43:57;;;;;;;67.22;56.92;;;;;;;9.21;100.00;102532.28;4957514;28;20056;-81
2021/12/13 10:46:31;;;;;;;68.97;57.65;;;;;;;9.21;100.00;102517.75;4913820;29;20515;-80
2021/12/13 10:49:00;;;;;;;70.53;58.78;;;;;;;9.33;100.00;102526.38;4928226;29;20024;-79
2021/12/13 10:51:38;;;;;;;70.07;58.78;;;;;;;9.18;100.00;102516.84;4931109;29;20028;-79
2021/12/13 10:54:12;;;;;;;65.80;57.17;;;;;;;9.23;100.00;102530.59;4928416;29;20028;-78
2021/12/13 10:56:44;;;;;;;69.57;58.08;;;;;;;9.28;100.00;102528.06;4912298;29;20447;-81
2021/12/13 10:59:13;;;;;;;66.50;57.17;;;;;;;9.25;100.00;102527.16;4927122;29;20038;-81
2021/12/13 11:01:43;;;;;;;64.25;57.00;;;;;;;9.26;100.00;102528.91;4923904;29;20023;-81
2021/12/13 11:04:12;;;;;;;63.13;56.22;;;;;;;9.21;100.00;102517.75;4943209;29;20562;-80
2021/12/13 11:06:39;;;;;;;61.67;55.03;;;;;;;9.33;100.00;102527.22;4959447;29;20034;-80
2021/12/13 11:09:08;;;;;;;63.10;56.30;;;;;;;9.28;100.00;102522.94;4961811;28;20139;-81
2021/12/13 11:11:38;;;;;;;62.17;55.65;;;;;;;9.27;100.00;102522.06;4954804;28;20524;-81
2021/12/13 11:14:07;;;;;;;61.63;55.03;;;;;;;9.21;100.00;102512.63;4946811;29;20023;-80
2021/12/13 11:16:35;;;;;;;61.92;55.42;;;;;;;9.22;100.00;102516.88;4925773;29;20083;-82
2021/12/13 11:19:03;;;;;;;63.03;55.88;;;;;;;9.22;100.00;102509.19;4958743;29;20031;-82
2021/12/13 11:21:33;;;;;;;62.58;55.88;;;;;;;9.31;100.00;102518.66;4957983;28;20027;-83
2021/12/13 11:23:58;;;;;;;62.90;56.35;;;;;;;9.35;100.00;102510.09;4962148;29;20115;-82
2021/12/13 11:26:29;;;;;;;63.77;56.70;;;;;;;9.29;100.00;102494.69;4946843;29;20023;-82
2021/12/13 11:28:55;;;;;;;62.58;55.13;;;;;;;9.32;100.00;102499.84;4938204;29;20047;-80
2021/12/13 11:31:29;;;;;;;60.00;53.90;;;;;;;9.34;100.00;102507.56;4960384;29;20020;-84
2021/12/13 11:34:01;;;;;;;62.28;55.58;;;;;;;9.32;100.00;102504.09;4957291;29;20328;-82
2021/12/13 11:36:39;;;;;;;61.78;55.30;;;;;;;9.28;99.69;102492.13;4957024;29;20023;-81
2021/12/13 11:39:34;;;;;;;62.03;55.72;;;;;;;9.34;99.64;102494.72;4940855;29;20028;-81
2021/12/13 11:42:39;;;;;;;64.38;56.35;;;;;;;9.26;98.79;102495.53;4955462;28;20023;-81
2021/12/13 11:45:36;;;;;;;62.53;56.03;;;;;;;9.25;99.19;102492.94;4955054;29;20042;-81
2021/12/13 11:48:06;;;;;;;65.10;58.17;;;;;;;9.21;98.07;102486.94;4966766;28;20184;-80
2021/12/13 11:51:09;;;;;;;62.83;56.03;;;;;;;9.22;98.60;102487.78;4954488;29;20048;-81
2021/12/13 11:54:03;;;;;;;62.30;55.50;;;;;;;9.26;98.83;102489.53;4966488;28;20039;-83
2021/12/13 11:56:53;;;;;;;63.83;56.85;;;;;;;9.23;99.24;102498.06;4963014;29;20055;-82
2021/12/13 11:59:33;;;;;;;66.45;58.05;;;;;;;9.15;99.22;102496.31;4959674;29;20033;-81
2021/12/13 12:02:15;;;;;;;66.63;57.70;;;;;;;9.13;100.00;102498.88;4963057;28;20039;-80
2021/12/13 12:05:11;;;;;;;63.60;56.63;;;;;;;9.11;100.00;102492.88;4998144;23;20050;-84
2021/12/13 12:08:03;;;;;;;63.00;56.60;;;;;;;9.13;99.65;102483.47;4981161;28;20035;-85
2021/12/13 12:10:47;;;;;;;63.08;56.70;;;;;;;9.09;99.09;102492.00;4966067;28;20030;-84
2021/12/13 12:13:14;;;;;;;68.78;58.92;;;;;;;9.11;100.00;102495.44;4953736;29;20035;-86
2021/12/13 12:15:42;;;;;;;64.50;57.63;;;;;;;9.06;99.62;102492.00;4977483;28;20096;-85
2021/12/13 12:18:15;;;;;;;70.78;59.28;;;;;;;9.07;100.00;102488.59;4975213;28;20026;-86
2021/12/13 12:20:48;;;;;;;66.93;58.42;;;;;;;9.06;100.00;102497.97;4993594;28;20082;-87
2021/12/13 12:23:33;;;;;;;66.35;57.95;;;;;;;9.10;100.00;102496.31;4993516;28;20046;-86
2021/12/13 12:26:01;;;;;;;68.40;58.20;;;;;;;9.12;100.00;102501.44;4992254;28;20042;-84
2021/12/13 12:28:30;;;;;;;64.10;56.22;;;;;;;9.11;98.01;102500.56;4960198;28;20023;-86
2021/12/13 12:30:58;;;;;;;65.50;57.58;;;;;;;9.05;98.12;102485.13;4983660;28;20094;-86
2021/12/13 12:33:37;;;;;;;67.30;58.38;;;;;;;9.12;96.90;102492.03;4975303;28;20031;-86
2021/12/13 12:36:24;;;;;;;66.75;57.85;;;;;;;9.11;96.70;102494.59;4948104;28;20055;-85